Time;durP1;ratioP1;P1;durP2;ratioP2;P2;SDS_P1;SDS_P2;PMS_P1;PMS_P2;Temp;Humidity;BMP_temperature;BMP_pressure;BME280_temperature;BME280_humidity;BME280_pressure;Samples;Min_cycle;Max_cycle;Signal;HPM_P1;HPM_P2
2022/01/20 00:01:45;;;;;;;25.38;15.70;;;;;;;;;;5003148;28;20025;-80
2022/01/20 00:09:47;;;;;;;25.80;15.52;;;;;;;;;;5008806;28;20045;-80
2022/01/20 00:26:13;;;;;;;27.20;16.63;;;;;;;;;;5009001;28;20037;-80
2022/01/20 00:28:42;;;;;;;25.38;13.98;;;;;;;;;;5000648;28;20076;-80
2022/01/20 00:31:29;;;;;;;28.90;16.58;;;;;;;;;;5006231;28;20027;-80
2022/01/20 00:39:19;;;;;;;21.52;14.70;;;;;;;;;;5008647;28;20038;-81
2022/01/20 00:41:45;;;;;;;24.73;16.08;;;;;;;;;;5007138;28;20034;-81
2022/01/20 00:44:11;;;;;;;23.83;14.73;;;;;;;;;;5008141;28;20051;-80
2022/01/20 00:46:37;;;;;;;20.67;12.55;;;;;;;;;;5007543;28;20053;-81
2022/01/20 00:49:04;;;;;;;22.00;14.80;;;;;;;;;;5007873;28;20026;-80
2022/01/20 00:51:31;;;;;;;18.83;12.30;;;;;;;;;;5007609;28;20026;-83
2022/01/20 00:53:57;;;;;;;21.02;12.68;;;;;;;;;;5007922;28;20420;-80
2022/01/20 00:56:23;;;;;;;20.67;12.18;;;;;;;;;;5007700;28;20113;-80
2022/01/20 00:58:49;;;;;;;20.63;12.20;;;;;;;;;;5007788;28;20023;-80
2022/01/20 01:01:15;;;;;;;20.20;11.85;;;;;;;;;;5008424;28;20038;-82
2022/01/20 01:03:42;;;;;;;17.83;12.18;;;;;;;;;;5006778;28;20019;-82
2022/01/20 01:08:35;;;;;;;19.90;12.57;;;;;;;;;;5006889;28;20050;-82
2022/01/20 01:11:01;;;;;;;16.40;10.45;;;;;;;;;;5006073;28;20053;-81
2022/01/20 01:13:29;;;;;;;19.98;12.68;;;;;;;;;;5005936;28;20082;-81
2022/01/20 01:15:55;;;;;;;18.25;11.93;;;;;;;;;;5005820;28;20093;-81
2022/01/20 01:21:13;;;;;;;19.55;11.07;;;;;;;;;;5009733;28;20400;-80
2022/01/20 01:23:41;;;;;;;17.77;10.93;;;;;;;;;;4999727;28;20026;-81
2022/01/20 01:26:08;;;;;;;17.15;10.43;;;;;;;;;;5008837;28;20034;-80
2022/01/20 01:28:34;;;;;;;20.15;11.60;;;;;;;;;;5009270;28;20026;-81
2022/01/20 01:33:58;;;;;;;18.02;11.95;;;;;;;;;;5008472;28;20412;-81
2022/01/20 01:36:27;;;;;;;17.33;10.98;;;;;;;;;;5007096;28;20018;-79
2022/01/20 01:38:53;;;;;;;17.63;10.90;;;;;;;;;;5006847;28;20029;-81
2022/01/20 01:41:33;;;;;;;16.23;9.90;;;;;;;;;;5009329;28;20019;-80
2022/01/20 01:44:04;;;;;;;18.13;11.27;;;;;;;;;;5008818;28;20038;-82
2022/01/20 01:46:31;;;;;;;18.10;10.68;;;;;;;;;;5009376;28;20033;-80
2022/01/20 01:48:58;;;;;;;19.13;11.05;;;;;;;;;;5009441;28;20045;-80
2022/01/20 01:51:24;;;;;;;16.45;10.60;;;;;;;;;;4998716;28;20059;-81
2022/01/20 01:53:50;;;;;;;14.48;10.63;;;;;;;;;;4991364;28;20035;-81
2022/01/20 01:56:16;;;;;;;15.60;10.45;;;;;;;;;;4989139;28;20042;-81
2022/01/20 01:58:42;;;;;;;16.45;10.02;;;;;;;;;;5002017;28;20015;-80
2022/01/20 02:01:09;;;;;;;17.85;10.93;;;;;;;;;;5010014;28;20058;-82
2022/01/20 02:03:43;;;;;;;15.30;10.15;;;;;;;;;;5009739;28;20492;-81
2022/01/20 02:19:39;;;;;;;14.75;8.98;;;;;;;;;;5011358;28;20061;-80
2022/01/20 02:22:05;;;;;;;13.65;7.95;;;;;;;;;;5009823;28;20038;-81
2022/01/20 02:24:31;;;;;;;13.00;7.60;;;;;;;;;;5012260;28;20094;-80
2022/01/20 02:26:57;;;;;;;13.63;7.28;;;;;;;;;;5014471;28;20026;-82
2022/01/20 02:29:23;;;;;;;12.43;7.43;;;;;;;;;;5012903;28;20037;-82
2022/01/20 02:31:58;;;;;;;11.82;7.82;;;;;;;;;;5012257;28;20117;-79
2022/01/20 02:34:25;;;;;;;10.30;6.72;;;;;;;;;;5012406;28;20031;-81
2022/01/20 02:36:51;;;;;;;10.77;6.72;;;;;;;;;;5011715;28;20045;-81
2022/01/20 02:47:17;;;;;;;12.60;7.18;;;;;;;;;;5008170;28;20081;-82
2022/01/20 02:49:43;;;;;;;11.90;6.65;;;;;;;;;;5006785;28;20508;-79
2022/01/20 02:52:09;;;;;;;12.93;7.30;;;;;;;;;;5005596;28;20033;-79
2022/01/20 02:54:36;;;;;;;11.27;7.57;;;;;;;;;;5006830;28;20026;-79
2022/01/20 02:57:03;;;;;;;11.77;7.20;;;;;;;;;;5007497;28;20026;-81
2022/01/20 02:59:30;;;;;;;11.80;6.78;;;;;;;;;;5008665;28;20068;-81
2022/01/20 03:01:57;;;;;;;11.52;6.38;;;;;;;;;;5007589;28;20034;-81
2022/01/20 03:04:24;;;;;;;11.27;6.88;;;;;;;;;;5007558;28;20107;-81
2022/01/20 03:06:50;;;;;;;10.88;6.57;;;;;;;;;;5007311;28;20032;-80
2022/01/20 03:09:16;;;;;;;10.40;6.15;;;;;;;;;;5008436;28;20038;-80
2022/01/20 03:11:42;;;;;;;11.93;6.10;;;;;;;;;;5008728;28;20030;-80
2022/01/20 03:14:08;;;;;;;11.43;6.78;;;;;;;;;;5007554;28;20030;-81
2022/01/20 03:16:34;;;;;;;10.60;6.45;;;;;;;;;;5006559;28;20030;-80
2022/01/20 03:19:00;;;;;;;12.43;7.18;;;;;;;;;;5007093;28;20019;-81
2022/01/20 03:21:26;;;;;;;10.63;6.70;;;;;;;;;;5008547;28;20022;-80
2022/01/20 03:23:53;;;;;;;11.25;6.60;;;;;;;;;;5006748;28;20175;-81
2022/01/20 03:26:19;;;;;;;11.23;6.53;;;;;;;;;;5007535;28;20038;-82
2022/01/20 03:28:45;;;;;;;10.35;6.53;;;;;;;;;;5008645;28;20022;-82
2022/01/20 03:31:11;;;;;;;11.05;6.60;;;;;;;;;;5006941;28;20102;-81
2022/01/20 03:33:37;;;;;;;13.73;7.20;;;;;;;;;;5007424;28;20030;-81
2022/01/20 03:36:03;;;;;;;11.60;6.57;;;;;;;;;;5007955;28;20034;-81
2022/01/20 03:38:29;;;;;;;8.35;5.85;;;;;;;;;;5007924;28;20027;-81
2022/01/20 03:40:55;;;;;;;10.23;5.80;;;;;;;;;;5007822;28;20030;-81
2022/01/20 03:43:21;;;;;;;10.95;6.60;;;;;;;;;;5006888;28;20114;-81
2022/01/20 03:45:50;;;;;;;9.25;6.25;;;;;;;;;;5006545;28;20126;-82
2022/01/20 03:48:17;;;;;;;10.93;7.82;;;;;;;;;;4994604;28;20026;-82
2022/01/20 03:51:02;;;;;;;10.27;5.95;;;;;;;;;;4995821;28;20034;-82
2022/01/20 03:53:38;;;;;;;11.57;6.97;;;;;;;;;;5005527;28;20022;-82
2022/01/20 03:56:05;;;;;;;11.18;7.40;;;;;;;;;;4985951;28;20030;-79
2022/01/20 03:58:31;;;;;;;11.77;6.72;;;;;;;;;;4985332;28;20026;-79
2022/01/20 04:00:58;;;;;;;13.90;6.60;;;;;;;;;;5003295;28;20034;-80
2022/01/20 04:03:24;;;;;;;9.98;5.95;;;;;;;;;;5003196;28;20089;-79
2022/01/20 04:05:57;;;;;;;12.63;6.38;;;;;;;;;;5005161;28;20046;-80
2022/01/20 04:08:24;;;;;;;11.00;7.20;;;;;;;;;;5007484;28;20038;-80
2022/01/20 04:10:50;;;;;;;12.15;7.25;;;;;;;;;;5007686;28;20030;-79
2022/01/20 04:13:18;;;;;;;10.80;6.50;;;;;;;;;;5005396;28;20082;-81
2022/01/20 04:15:44;;;;;;;12.68;7.20;;;;;;;;;;5005568;28;20026;-81
2022/01/20 04:18:13;;;;;;;11.13;7.00;;;;;;;;;;5005624;28;20023;-80
2022/01/20 04:20:40;;;;;;;10.35;5.93;;;;;;;;;;5006069;28;20472;-80
2022/01/20 04:23:06;;;;;;;10.20;6.00;;;;;;;;;;5004361;28;20396;-80
2022/01/20 04:25:34;;;;;;;10.98;6.93;;;;;;;;;;5003437;28;20026;-79
2022/01/20 04:28:00;;;;;;;8.70;6.15;;;;;;;;;;5006444;28;20109;-82
2022/01/20 04:30:28;;;;;;;11.85;6.35;;;;;;;;;;5007378;28;20054;-80
2022/01/20 04:32:54;;;;;;;10.38;6.18;;;;;;;;;;5005613;28;20031;-81
2022/01/20 04:35:20;;;;;;;9.00;5.80;;;;;;;;;;5006540;28;20026;-81
2022/01/20 04:37:48;;;;;;;11.05;5.88;;;;;;;;;;5005592;28;20022;-83
2022/01/20 04:40:15;;;;;;;10.57;6.32;;;;;;;;;;5007495;28;20027;-80
2022/01/20 04:42:44;;;;;;;10.02;6.15;;;;;;;;;;5007277;28;20030;-82
2022/01/20 04:45:13;;;;;;;10.15;6.72;;;;;;;;;;5006311;28;20029;-80
2022/01/20 04:47:56;;;;;;;8.20;5.53;;;;;;;;;;5005910;28;20049;-81
2022/01/20 04:58:37;;;;;;;9.93;5.93;;;;;;;;;;5010605;28;20033;-83
2022/01/20 05:01:03;;;;;;;9.70;5.97;;;;;;;;;;5009056;28;20455;-80
2022/01/20 05:03:30;;;;;;;11.20;5.45;;;;;;;;;;5008023;28;20090;-81
2022/01/20 05:05:56;;;;;;;8.15;5.55;;;;;;;;;;5010047;28;20105;-82
2022/01/20 05:08:24;;;;;;;9.98;6.55;;;;;;;;;;5008544;28;20029;-80
2022/01/20 05:10:52;;;;;;;11.25;5.82;;;;;;;;;;5008908;28;20033;-81
2022/01/20 05:13:32;;;;;;;7.65;5.03;;;;;;;;;;5009787;28;20018;-79
2022/01/20 05:15:58;;;;;;;9.15;5.18;;;;;;;;;;5006956;28;20050;-80
2022/01/20 05:18:24;;;;;;;9.13;5.13;;;;;;;;;;5009689;28;20057;-81
2022/01/20 05:20:51;;;;;;;8.90;5.03;;;;;;;;;;5006415;28;20027;-80
2022/01/20 05:23:16;;;;;;;9.48;5.32;;;;;;;;;;5001145;28;20425;-80
2022/01/20 05:25:43;;;;;;;8.40;4.95;;;;;;;;;;5007540;28;20032;-80
2022/01/20 05:28:09;;;;;;;8.55;4.70;;;;;;;;;;4991832;28;20027;-80
2022/01/20 05:30:35;;;;;;;7.35;5.00;;;;;;;;;;4989235;28;20027;-80
2022/01/20 05:33:01;;;;;;;8.15;4.82;;;;;;;;;;5004630;28;20045;-80
2022/01/20 05:35:28;;;;;;;8.48;4.97;;;;;;;;;;5007885;28;20034;-81
2022/01/20 05:37:54;;;;;;;8.50;4.82;;;;;;;;;;5010525;28;20034;-80
2022/01/20 05:40:20;;;;;;;7.53;4.55;;;;;;;;;;5010883;28;20026;-81
2022/01/20 05:42:49;;;;;;;8.65;4.90;;;;;;;;;;5010604;28;20094;-82
2022/01/20 05:45:16;;;;;;;8.77;4.65;;;;;;;;;;5003561;28;20030;-82
2022/01/20 05:47:47;;;;;;;7.50;4.68;;;;;;;;;;5006583;28;20513;-82
2022/01/20 05:50:17;;;;;;;7.47;3.95;;;;;;;;;;5006316;28;20027;-82
2022/01/20 05:52:43;;;;;;;7.75;4.85;;;;;;;;;;5008447;28;20030;-83
2022/01/20 05:55:15;;;;;;;7.57;4.28;;;;;;;;;;5007456;28;20027;-82
2022/01/20 05:57:41;;;;;;;8.02;4.32;;;;;;;;;;5006014;28;20110;-82
2022/01/20 06:00:09;;;;;;;8.30;5.13;;;;;;;;;;4992213;28;20030;-81
2022/01/20 06:03:35;;;;;;;7.50;4.38;;;;;;;;;;5006898;28;20475;-82
2022/01/20 06:05:21;;;;;;;7.38;4.45;;;;;;;;;;5007522;28;20042;-81
2022/01/20 06:07:47;;;;;;;7.63;4.10;;;;;;;;;;5007949;28;20027;-82
2022/01/20 06:10:13;;;;;;;8.98;4.60;;;;;;;;;;5008378;28;20058;-82
2022/01/20 06:12:39;;;;;;;6.78;3.85;;;;;;;;;;5005154;28;20030;-80
2022/01/20 06:15:06;;;;;;;5.65;3.45;;;;;;;;;;5007212;28;20030;-80
2022/01/20 06:17:34;;;;;;;10.45;4.53;;;;;;;;;;5005444;28;20030;-79
2022/01/20 06:20:01;;;;;;;7.20;4.03;;;;;;;;;;5005287;28;20120;-81
2022/01/20 06:22:27;;;;;;;8.27;4.68;;;;;;;;;;5007505;28;20026;-80
2022/01/20 06:24:53;;;;;;;6.88;4.03;;;;;;;;;;5006519;28;20041;-81
2022/01/20 06:27:19;;;;;;;8.60;3.90;;;;;;;;;;5006346;28;20019;-80
2022/01/20 06:29:46;;;;;;;7.90;4.53;;;;;;;;;;5004101;28;20031;-81
2022/01/20 06:32:12;;;;;;;7.38;4.45;;;;;;;;;;5003579;28;20530;-82
2022/01/20 06:34:38;;;;;;;8.57;4.90;;;;;;;;;;5004801;28;20032;-81
2022/01/20 06:37:04;;;;;;;9.10;4.93;;;;;;;;;;5003697;28;20061;-81
2022/01/20 06:39:30;;;;;;;8.50;4.47;;;;;;;;;;4997322;28;20031;-81
2022/01/20 06:41:56;;;;;;;8.32;4.82;;;;;;;;;;5005646;28;20030;-80
2022/01/20 06:44:22;;;;;;;7.13;4.28;;;;;;;;;;5004638;28;20133;-81
2022/01/20 06:46:49;;;;;;;7.95;4.30;;;;;;;;;;5004145;28;20041;-81
2022/01/20 06:49:16;;;;;;;8.07;4.55;;;;;;;;;;5004359;28;20030;-81
2022/01/20 06:51:42;;;;;;;8.30;4.43;;;;;;;;;;5005660;28;20026;-81
2022/01/20 06:54:08;;;;;;;8.02;4.05;;;;;;;;;;5004051;28;20034;-82
2022/01/20 06:56:34;;;;;;;8.52;4.07;;;;;;;;;;5004056;28;20106;-82
2022/01/20 06:59:00;;;;;;;7.57;4.15;;;;;;;;;;5004053;28;20023;-82
2022/01/20 07:01:26;;;;;;;8.20;5.03;;;;;;;;;;5004137;28;20492;-83
2022/01/20 07:03:52;;;;;;;7.00;4.03;;;;;;;;;;5004107;28;20092;-81
2022/01/20 07:06:18;;;;;;;7.22;4.07;;;;;;;;;;4992440;28;20049;-80
2022/01/20 07:08:44;;;;;;;9.10;4.57;;;;;;;;;;5005242;28;20085;-82
2022/01/20 07:11:10;;;;;;;7.00;3.92;;;;;;;;;;5004834;28;20054;-81
2022/01/20 07:13:37;;;;;;;6.95;4.20;;;;;;;;;;5003776;28;20099;-82
2022/01/20 07:16:03;;;;;;;7.47;4.28;;;;;;;;;;5002251;28;20046;-81
2022/01/20 07:18:29;;;;;;;7.85;4.25;;;;;;;;;;5002717;28;20050;-81
2022/01/20 07:20:55;;;;;;;6.97;3.92;;;;;;;;;;5003088;28;20019;-79
2022/01/20 07:23:21;;;;;;;5.80;3.53;;;;;;;;;;5002388;28;20023;-81
2022/01/20 07:25:47;;;;;;;6.47;4.20;;;;;;;;;;5001339;28;20026;-80
2022/01/20 07:28:14;;;;;;;6.78;3.97;;;;;;;;;;5004439;28;20026;-80
2022/01/20 07:30:40;;;;;;;7.20;3.75;;;;;;;;;;5005948;28;20034;-82
2022/01/20 07:33:07;;;;;;;7.10;4.50;;;;;;;;;;5004484;28;20026;-81
2022/01/20 07:35:34;;;;;;;8.27;4.10;;;;;;;;;;5005771;28;20110;-81
2022/01/20 07:38:00;;;;;;;8.48;3.63;;;;;;;;;;5005696;28;20023;-81
2022/01/20 07:40:26;;;;;;;6.88;4.28;;;;;;;;;;5002963;28;20389;-81
2022/01/20 07:42:52;;;;;;;6.57;3.47;;;;;;;;;;4995708;28;20031;-82
2022/01/20 07:45:21;;;;;;;6.80;3.70;;;;;;;;;;4996828;28;20048;-82
2022/01/20 07:47:47;;;;;;;7.38;3.70;;;;;;;;;;5004624;28;20049;-80
2022/01/20 07:50:13;;;;;;;8.27;4.32;;;;;;;;;;5001507;28;20022;-81
2022/01/20 07:52:39;;;;;;;6.85;3.95;;;;;;;;;;5004496;28;20042;-81
2022/01/20 07:55:05;;;;;;;6.13;3.95;;;;;;;;;;5003591;28;20026;-80
2022/01/20 07:57:31;;;;;;;7.35;4.00;;;;;;;;;;5003463;28;20124;-82
2022/01/20 07:59:58;;;;;;;6.72;3.30;;;;;;;;;;5003070;28;20023;-80
2022/01/20 08:02:24;;;;;;;6.53;3.58;;;;;;;;;;5002896;28;20539;-80
2022/01/20 08:04:50;;;;;;;6.95;3.88;;;;;;;;;;5000788;28;20049;-81
2022/01/20 08:07:17;;;;;;;6.35;3.40;;;;;;;;;;5000725;28;20117;-80
2022/01/20 08:09:44;;;;;;;5.50;3.28;;;;;;;;;;5002628;28;20034;-82
2022/01/20 08:12:12;;;;;;;7.43;3.17;;;;;;;;;;5002810;28;20134;-81
2022/01/20 08:14:40;;;;;;;6.07;3.40;;;;;;;;;;5001105;28;20461;-81
2022/01/20 08:17:06;;;;;;;6.25;3.28;;;;;;;;;;5002219;28;20378;-80
2022/01/20 08:19:34;;;;;;;5.90;3.35;;;;;;;;;;5002233;28;20026;-81
2022/01/20 08:22:00;;;;;;;5.80;3.28;;;;;;;;;;5002629;28;20018;-80
2022/01/20 08:24:26;;;;;;;5.38;3.00;;;;;;;;;;5003415;28;20046;-81
2022/01/20 08:26:52;;;;;;;5.80;2.67;;;;;;;;;;5001932;28;20064;-82
2022/01/20 08:29:18;;;;;;;5.97;3.33;;;;;;;;;;5002371;28;20068;-80
2022/01/20 08:31:44;;;;;;;5.72;3.10;;;;;;;;;;5003272;28;20053;-83
2022/01/20 08:34:10;;;;;;;5.45;2.83;;;;;;;;;;5000617;28;20038;-81
2022/01/20 08:36:36;;;;;;;5.10;2.80;;;;;;;;;;5003735;28;20126;-81
2022/01/20 08:39:17;;;;;;;4.53;2.63;;;;;;;;;;5005291;28;20491;-81
2022/01/20 08:41:43;;;;;;;5.30;2.75;;;;;;;;;;5005515;28;20030;-81
2022/01/20 08:44:09;;;;;;;6.80;3.58;;;;;;;;;;5007339;28;20622;-81
2022/01/20 08:46:38;;;;;;;5.38;2.75;;;;;;;;;;5005102;28;20026;-80
2022/01/20 08:49:04;;;;;;;4.78;2.50;;;;;;;;;;5002148;28;20113;-82
2022/01/20 08:51:30;;;;;;;4.45;2.42;;;;;;;;;;5001951;28;20036;-82
2022/01/20 08:53:59;;;;;;;5.00;2.67;;;;;;;;;;5004013;28;20097;-81
2022/01/20 08:56:25;;;;;;;5.63;2.72;;;;;;;;;;5002321;28;20098;-82
2022/01/20 08:58:51;;;;;;;6.50;3.13;;;;;;;;;;5002318;28;20113;-81
2022/01/20 09:01:17;;;;;;;4.53;2.50;;;;;;;;;;5001930;28;20397;-81
2022/01/20 09:03:43;;;;;;;5.53;3.03;;;;;;;;;;5003447;28;20049;-82
2022/01/20 09:06:10;;;;;;;4.95;2.60;;;;;;;;;;5001809;28;20552;-81
2022/01/20 09:08:36;;;;;;;5.28;2.20;;;;;;;;;;5003490;28;20031;-82
2022/01/20 09:11:06;;;;;;;4.32;2.30;;;;;;;;;;5001224;28;20030;-81
2022/01/20 09:16:17;;;;;;;4.97;2.25;;;;;;;;;;5003198;28;20053;-82
2022/01/20 09:18:43;;;;;;;6.90;2.58;;;;;;;;;;5002848;28;20030;-80
2022/01/20 09:21:09;;;;;;;5.00;2.17;;;;;;;;;;4991196;28;20031;-80
2022/01/20 09:23:35;;;;;;;4.90;2.63;;;;;;;;;;4984234;28;20023;-80
2022/01/20 09:26:02;;;;;;;5.30;2.38;;;;;;;;;;4983103;28;20034;-81
2022/01/20 09:28:28;;;;;;;6.10;2.97;;;;;;;;;;4990900;28;20117;-81
2022/01/20 09:30:58;;;;;;;5.80;2.55;;;;;;;;;;5002397;28;20073;-81
2022/01/20 09:33:27;;;;;;;4.20;2.03;;;;;;;;;;5003799;28;20102;-81
2022/01/20 09:35:53;;;;;;;7.65;3.17;;;;;;;;;;5002483;28;20026;-81
2022/01/20 09:38:20;;;;;;;4.70;2.17;;;;;;;;;;5005050;28;20424;-81
2022/01/20 09:40:46;;;;;;;5.38;2.05;;;;;;;;;;5009655;28;20026;-81
2022/01/20 09:43:14;;;;;;;5.15;2.83;;;;;;;;;;5009604;28;20034;-81
2022/01/20 09:45:40;;;;;;;4.88;2.58;;;;;;;;;;5010382;28;20037;-81
2022/01/20 09:48:09;;;;;;;5.95;2.58;;;;;;;;;;5010035;28;20076;-83
2022/01/20 09:50:35;;;;;;;5.05;2.22;;;;;;;;;;5007922;28;20029;-80
2022/01/20 09:53:02;;;;;;;4.57;1.83;;;;;;;;;;5008557;28;20046;-82
2022/01/20 09:55:30;;;;;;;8.10;2.40;;;;;;;;;;5009445;28;20022;-81
2022/01/20 09:57:56;;;;;;;4.35;1.88;;;;;;;;;;5008227;28;20026;-80
2022/01/20 10:00:22;;;;;;;4.50;2.10;;;;;;;;;;5007326;28;20044;-79
2022/01/20 10:02:51;;;;;;;11.68;2.45;;;;;;;;;;5005039;28;20037;-82
2022/01/20 10:05:32;;;;;;;5.38;1.90;;;;;;;;;;5005350;28;20029;-81
2022/01/20 10:08:03;;;;;;;4.65;2.33;;;;;;;;;;5006234;28;20154;-81
2022/01/20 10:10:49;;;;;;;9.85;3.10;;;;;;;;;;5007113;28;20049;-81
2022/01/20 10:13:17;;;;;;;5.63;2.33;;;;;;;;;;5007151;28;20487;-80
2022/01/20 10:15:44;;;;;;;9.38;3.67;;;;;;;;;;5005123;28;20034;-81
2022/01/20 10:18:11;;;;;;;10.85;3.28;;;;;;;;;;5005469;28;20050;-80
2022/01/20 10:20:49;;;;;;;11.68;2.63;;;;;;;;;;5005149;28;20046;-81
2022/01/20 10:23:26;;;;;;;5.57;2.17;;;;;;;;;;5003081;28;20025;-81
2022/01/20 10:26:02;;;;;;;4.05;2.13;;;;;;;;;;5004212;28;20037;-81
2022/01/20 10:28:28;;;;;;;12.60;4.03;;;;;;;;;;5004877;28;20039;-82
2022/01/20 10:30:55;;;;;;;10.95;3.80;;;;;;;;;;5005347;28;20034;-82
2022/01/20 10:33:21;;;;;;;7.18;3.10;;;;;;;;;;5004422;28;20034;-81
2022/01/20 10:35:48;;;;;;;8.68;3.00;;;;;;;;;;5004719;28;20026;-82
2022/01/20 10:38:16;;;;;;;7.13;2.63;;;;;;;;;;5002849;28;20023;-82
2022/01/20 10:40:50;;;;;;;4.53;2.08;;;;;;;;;;5003386;28;20034;-82
2022/01/20 10:43:22;;;;;;;5.57;2.08;;;;;;;;;;5004068;28;20043;-81
2022/01/20 10:45:49;;;;;;;6.83;2.17;;;;;;;;;;5004382;28;20026;-82
2022/01/20 10:48:19;;;;;;;16.58;3.53;;;;;;;;;;5004179;28;20348;-81
2022/01/20 10:50:47;;;;;;;6.82;2.30;;;;;;;;;;5001722;28;20041;-81
2022/01/20 10:53:22;;;;;;;7.68;2.85;;;;;;;;;;5003949;28;20090;-79
2022/01/20 10:55:49;;;;;;;12.23;3.53;;;;;;;;;;5004982;28;20420;-82
2022/01/20 10:58:20;;;;;;;6.72;2.30;;;;;;;;;;5001661;28;20026;-81
2022/01/20 11:00:48;;;;;;;5.82;2.38;;;;;;;;;;5004303;28;20072;-80
2022/01/20 11:03:14;;;;;;;5.28;2.92;;;;;;;;;;5003467;28;20025;-83
2022/01/20 11:05:41;;;;;;;10.32;4.38;;;;;;;;;;5002022;28;20023;-82
2022/01/20 11:08:08;;;;;;;6.07;2.90;;;;;;;;;;5001258;28;20018;-81
2022/01/20 11:10:34;;;;;;;3.53;1.70;;;;;;;;;;5002887;28;20022;-82
2022/01/20 11:16:04;;;;;;;6.03;2.40;;;;;;;;;;4988542;28;20081;-80
2022/01/20 11:18:30;;;;;;;5.68;1.98;;;;;;;;;;4981255;28;20023;-80
2022/01/20 11:20:57;;;;;;;4.95;2.17;;;;;;;;;;4981317;28;20018;-81
2022/01/20 11:23:23;;;;;;;5.55;2.30;;;;;;;;;;4995203;28;20018;-81
2022/01/20 11:25:51;;;;;;;4.93;2.10;;;;;;;;;;5002611;28;20038;-81
2022/01/20 11:28:19;;;;;;;4.93;2.22;;;;;;;;;;5001126;28;20097;-81
2022/01/20 11:30:54;;;;;;;5.88;2.72;;;;;;;;;;4993283;28;20038;-82
2022/01/20 11:33:26;;;;;;;4.25;2.33;;;;;;;;;;5001701;28;20146;-82
2022/01/20 11:35:56;;;;;;;4.85;2.50;;;;;;;;;;5001977;28;20575;-81
2022/01/20 11:38:24;;;;;;;10.45;3.35;;;;;;;;;;5002117;28;20054;-82
2022/01/20 11:40:51;;;;;;;4.35;2.20;;;;;;;;;;5003122;28;20018;-80
2022/01/20 11:43:18;;;;;;;5.20;2.40;;;;;;;;;;5005612;28;20041;-80
2022/01/20 11:45:54;;;;;;;5.43;2.40;;;;;;;;;;5005079;28;20050;-81
2022/01/20 11:48:21;;;;;;;4.40;2.42;;;;;;;;;;5001890;28;20022;-82
2022/01/20 11:51:01;;;;;;;5.55;2.78;;;;;;;;;;4999548;28;20420;-80
2022/01/20 11:53:28;;;;;;;7.75;2.53;;;;;;;;;;5000882;28;20432;-81
2022/01/20 11:55:55;;;;;;;4.32;2.00;;;;;;;;;;4999547;28;20056;-79
2022/01/20 11:58:23;;;;;;;16.77;3.22;;;;;;;;;;5001513;28;20031;-82
2022/01/20 12:01:00;;;;;;;6.38;2.50;;;;;;;;;;5003348;28;20033;-82
2022/01/20 12:03:26;;;;;;;5.40;2.35;;;;;;;;;;5002985;28;20453;-82
2022/01/20 12:06:04;;;;;;;5.50;2.50;;;;;;;;;;5002352;28;20054;-80
2022/01/20 12:08:31;;;;;;;5.25;2.42;;;;;;;;;;5000297;28;20026;-81
2022/01/20 12:11:15;;;;;;;6.82;2.35;;;;;;;;;;5003481;28;20026;-80
2022/01/20 12:13:45;;;;;;;11.13;3.50;;;;;;;;;;5003057;28;20033;-81
2022/01/20 12:16:22;;;;;;;5.60;2.75;;;;;;;;;;5001445;28;20034;-82
2022/01/20 12:18:54;;;;;;;6.95;2.40;;;;;;;;;;5002529;28;20025;-82
2022/01/20 12:21:21;;;;;;;7.35;3.70;;;;;;;;;;5003009;28;20042;-84
2022/01/20 12:23:48;;;;;;;5.80;2.70;;;;;;;;;;5003494;28;20034;-81
2022/01/20 12:26:14;;;;;;;6.60;2.47;;;;;;;;;;5002232;28;20528;-80
2022/01/20 12:28:40;;;;;;;5.13;2.63;;;;;;;;;;5002254;28;20492;-83
2022/01/20 12:31:14;;;;;;;11.18;2.95;;;;;;;;;;5003836;28;20058;-83
2022/01/20 12:33:46;;;;;;;5.10;2.55;;;;;;;;;;5003760;28;20023;-82
2022/01/20 12:36:17;;;;;;;4.38;1.88;;;;;;;;;;5001725;28;20044;-81
2022/01/20 12:38:46;;;;;;;5.63;2.28;;;;;;;;;;4997744;28;20030;-79
2022/01/20 12:41:22;;;;;;;8.05;2.38;;;;;;;;;;5000511;28;20045;-80
2022/01/20 12:43:53;;;;;;;4.38;1.90;;;;;;;;;;5002681;28;20057;-81
2022/01/20 12:46:30;;;;;;;6.22;2.40;;;;;;;;;;5004118;28;20022;-80
2022/01/20 12:49:01;;;;;;;6.15;2.40;;;;;;;;;;5000959;28;20034;-81
2022/01/20 12:51:43;;;;;;;6.05;1.95;;;;;;;;;;5000767;28;20035;-80
2022/01/20 12:54:12;;;;;;;5.70;2.47;;;;;;;;;;5013104;28;20037;-81
2022/01/20 12:56:41;;;;;;;6.40;2.45;;;;;;;;;;5003676;28;20093;-81
2022/01/20 12:59:07;;;;;;;4.90;2.00;;;;;;;;;;5022104;28;20030;-82
2022/01/20 13:01:40;;;;;;;4.25;2.10;;;;;;;;;;4993868;28;20023;-83
2022/01/20 13:04:09;;;;;;;6.20;2.55;;;;;;;;;;4984916;28;20033;-82
2022/01/20 13:06:36;;;;;;;5.18;2.50;;;;;;;;;;4993084;28;20372;-84
2022/01/20 13:09:05;;;;;;;4.80;2.25;;;;;;;;;;5001448;28;20026;-81
2022/01/20 13:11:33;;;;;;;6.68;2.17;;;;;;;;;;5001586;28;20037;-83
2022/01/20 13:14:00;;;;;;;5.07;2.20;;;;;;;;;;5003537;28;20030;-84
2022/01/20 13:16:26;;;;;;;4.75;2.38;;;;;;;;;;5006073;28;20106;-81
2022/01/20 13:18:56;;;;;;;4.32;2.25;;;;;;;;;;5006900;28;20078;-80
2022/01/20 13:21:33;;;;;;;4.25;1.83;;;;;;;;;;5002999;28;20034;-81
2022/01/20 13:24:02;;;;;;;4.22;2.00;;;;;;;;;;5006029;28;20081;-82
2022/01/20 13:26:28;;;;;;;4.55;1.90;;;;;;;;;;5006364;28;20050;-81
2022/01/20 13:29:05;;;;;;;5.53;2.80;;;;;;;;;;5007198;28;20049;-83
2022/01/20 13:31:31;;;;;;;4.85;2.47;;;;;;;;;;5005993;28;20023;-81
2022/01/20 13:34:27;;;;;;;4.68;2.10;;;;;;;;;;5005432;28;20030;-81
2022/01/20 13:36:54;;;;;;;5.15;2.20;;;;;;;;;;5002170;28;20130;-81
2022/01/20 13:39:37;;;;;;;4.57;1.25;;;;;;;;;;5006552;28;20082;-83
2022/01/20 13:42:19;;;;;;;1.50;0.70;;;;;;;;;;5003210;28;20022;-80
2022/01/20 13:45:06;;;;;;;1.10;0.45;;;;;;;;;;5000025;28;20061;-83
2022/01/20 13:47:32;;;;;;;3.63;0.70;;;;;;;;;;5003485;28;20117;-83
2022/01/20 13:49:58;;;;;;;2.72;0.65;;;;;;;;;;5002554;28;20062;-83
2022/01/20 13:52:24;;;;;;;1.65;0.52;;;;;;;;;;4998541;28;20023;-83
2022/01/20 13:54:52;;;;;;;2.63;0.85;;;;;;;;;;4999534;28;20109;-83
2022/01/20 13:57:19;;;;;;;2.63;0.70;;;;;;;;;;5005098;28;20484;-82
2022/01/20 13:59:49;;;;;;;2.35;0.73;;;;;;;;;;5011522;28;20485;-80
2022/01/20 14:02:15;;;;;;;1.08;0.63;;;;;;;;;;4988094;28;20058;-82
2022/01/20 14:04:41;;;;;;;2.30;0.70;;;;;;;;;;5002568;28;20074;-81
2022/01/20 14:07:07;;;;;;;3.00;0.80;;;;;;;;;;5007140;28;20046;-80
2022/01/20 14:09:33;;;;;;;2.35;0.80;;;;;;;;;;5004132;28;20038;-81
2022/01/20 14:11:59;;;;;;;2.58;0.68;;;;;;;;;;5003847;28;20431;-80
2022/01/20 14:14:25;;;;;;;4.40;1.10;;;;;;;;;;5003940;28;20026;-79
2022/01/20 14:16:52;;;;;;;2.63;0.90;;;;;;;;;;5003040;28;20033;-80
2022/01/20 14:19:22;;;;;;;1.83;0.88;;;;;;;;;;5002335;28;20032;-79
2022/01/20 14:21:50;;;;;;;2.67;0.75;;;;;;;;;;4998751;28;20042;-81
2022/01/20 14:24:16;;;;;;;2.38;0.80;;;;;;;;;;4996044;28;20054;-78
2022/01/20 14:26:44;;;;;;;2.63;0.80;;;;;;;;;;4999767;28;20034;-79
2022/01/20 14:29:11;;;;;;;2.03;0.73;;;;;;;;;;4999449;28;20034;-77
2022/01/20 14:31:37;;;;;;;2.58;0.90;;;;;;;;;;4999196;28;20057;-80
2022/01/20 14:34:04;;;;;;;2.75;1.08;;;;;;;;;;4999093;28;20055;-80
2022/01/20 14:36:30;;;;;;;2.58;0.85;;;;;;;;;;4997717;28;20121;-79
2022/01/20 14:38:56;;;;;;;3.38;0.93;;;;;;;;;;5000127;28;20369;-78
2022/01/20 14:41:22;;;;;;;2.08;0.75;;;;;;;;;;5001327;28;20022;-79
2022/01/20 14:43:48;;;;;;;3.03;0.85;;;;;;;;;;4959730;28;1153147;-79
2022/01/20 14:46:15;;;;;;;3.10;0.95;;;;;;;;;;5001719;28;20038;-79
2022/01/20 14:48:41;;;;;;;2.13;0.80;;;;;;;;;;5001652;28;20030;-79
2022/01/20 14:51:08;;;;;;;5.85;1.75;;;;;;;;;;5000197;28;20101;-79
2022/01/20 14:53:35;;;;;;;4.28;1.35;;;;;;;;;;4998333;28;20030;-81
2022/01/20 14:56:01;;;;;;;6.25;1.90;;;;;;;;;;5000493;28;20448;-80
2022/01/20 14:58:27;;;;;;;3.53;1.40;;;;;;;;;;5000959;28;20022;-80
2022/01/20 15:00:53;;;;;;;4.13;1.10;;;;;;;;;;4998563;28;20046;-80
2022/01/20 15:03:20;;;;;;;4.60;1.58;;;;;;;;;;4999949;28;20042;-80
2022/01/20 15:05:49;;;;;;;3.65;1.30;;;;;;;;;;5002228;28;20030;-80
2022/01/20 15:08:16;;;;;;;3.40;1.10;;;;;;;;;;5002332;28;20027;-78
2022/01/20 15:10:42;;;;;;;2.15;0.80;;;;;;;;;;5002057;28;20236;-80
2022/01/20 15:13:09;;;;;;;3.25;1.10;;;;;;;;;;5005134;28;20023;-79
2022/01/20 15:15:35;;;;;;;3.90;1.50;;;;;;;;;;5001949;28;20102;-81
2022/01/20 15:18:01;;;;;;;3.47;1.10;;;;;;;;;;5002005;28;20026;-80
2022/01/20 15:20:29;;;;;;;2.92;1.00;;;;;;;;;;5001990;28;20019;-79
2022/01/20 15:22:55;;;;;;;4.03;1.27;;;;;;;;;;5000910;28;20118;-80
2022/01/20 15:25:21;;;;;;;5.03;1.65;;;;;;;;;;5010909;28;20443;-80
2022/01/20 15:27:47;;;;;;;4.88;1.50;;;;;;;;;;5003424;28;20034;-80
2022/01/20 15:30:13;;;;;;;3.78;1.30;;;;;;;;;;5002947;28;20085;-80
2022/01/20 15:32:39;;;;;;;3.75;1.38;;;;;;;;;;5004089;28;20037;-81
2022/01/20 15:35:06;;;;;;;3.03;1.25;;;;;;;;;;5001941;28;20037;-80
2022/01/20 15:37:32;;;;;;;2.75;1.13;;;;;;;;;;5003204;28;20030;-81
2022/01/20 15:39:58;;;;;;;3.70;1.13;;;;;;;;;;5002751;28;20472;-80
2022/01/20 15:42:24;;;;;;;4.57;1.10;;;;;;;;;;4999537;28;20103;-80
2022/01/20 15:44:50;;;;;;;3.75;1.30;;;;;;;;;;5002233;28;20081;-80
2022/01/20 15:47:18;;;;;;;3.88;1.00;;;;;;;;;;5001596;28;20057;-80
2022/01/20 15:49:44;;;;;;;2.60;1.05;;;;;;;;;;5000410;28;20034;-80
2022/01/20 15:52:10;;;;;;;3.80;1.20;;;;;;;;;;5001284;28;20078;-80